Terminal Aerodrome Forecast
Issued by NWS Springfield, MO

Home | Current Version | Previous Version | Text Only | Print | Product List | Glossary On
Versions: 1 2 3 4 5 6 7 8 9 10 11 12 13 14 15 16 17 18 19 20 21 22 23 24 25 26 27 28
000
FTUS43 KSGF 272320
TAFSGF
TAF
KSGF 272320Z 2800/2824 19004KT P6SM SCT035 BKN150
     FM280400 VRB03KT P6SM BKN200
     FM281400 29005KT P6SM SCT150 PROB30 2817/2818 4SM TSRA SCT050CB
      BKN130
     FM282300 30006KT P6SM SCT050=

USA.gov is the U.S. government's official web portal to all federal, state and local government web resources and services.